Terminal Aerodrome Forecast
Issued by NWS

Home | Current Version | Previous Version | Text Only | Print | Product List | Glossary On
Versions: 1 2 3 4 5 6 7 8 9 10 11 12 13 14 15 16 17 18 19 20 21
000
FTUS43 KEAX 230200 AAA
TAFMKC
TAF AMD
KMKC 230219Z 2302/2324 19012KT P6SM OVC015
     FM230600 18010KT 4SM -DZ BR OVC018
     FM231100 17008KT 2SM -RA BR OVC007
     FM231700 18008KT 3SM -SHRA BR OVC020
     FM232000 33012G20KT 5SM -RA OVC020=

USA.gov is the U.S. government's official web portal to all federal, state and local government web resources and services.